sensor_id;sensor_type;location;lat;lon;timestamp;P1;durP1;ratioP1;P2;durP2;ratioP2
22697;SDS011;11516;51.612;7.510;2022-08-21T00:02:13;10.98;;;5.07;;
22697;SDS011;11516;51.612;7.510;2022-08-21T00:04:41;9.82;;;4.90;;
22697;SDS011;11516;51.612;7.510;2022-08-21T00:07:06;9.70;;;4.32;;
22697;SDS011;11516;51.612;7.510;2022-08-21T00:09:32;7.57;;;4.70;;
22697;SDS011;11516;51.612;7.510;2022-08-21T00:11:58;10.05;;;4.18;;
22697;SDS011;11516;51.612;7.510;2022-08-21T00:14:23;8.93;;;4.47;;
22697;SDS011;11516;51.612;7.510;2022-08-21T00:16:49;8.40;;;4.55;;
22697;SDS011;11516;51.612;7.510;2022-08-21T00:19:14;8.20;;;4.30;;
22697;SDS011;11516;51.612;7.510;2022-08-21T00:21:40;8.20;;;4.55;;
22697;SDS011;11516;51.612;7.510;2022-08-21T00:24:06;10.73;;;4.67;;
22697;SDS011;11516;51.612;7.510;2022-08-21T00:26:32;6.20;;;3.90;;
22697;SDS011;11516;51.612;7.510;2022-08-21T00:28:57;6.78;;;4.50;;
22697;SDS011;11516;51.612;7.510;2022-08-21T00:31:23;8.38;;;4.55;;
22697;SDS011;11516;51.612;7.510;2022-08-21T00:33:48;9.47;;;4.13;;
22697;SDS011;11516;51.612;7.510;2022-08-21T00:36:14;9.43;;;4.53;;
22697;SDS011;11516;51.612;7.510;2022-08-21T00:38:40;11.02;;;4.80;;
22697;SDS011;11516;51.612;7.510;2022-08-21T00:41:06;10.30;;;4.63;;
22697;SDS011;11516;51.612;7.510;2022-08-21T00:43:34;8.02;;;4.35;;
22697;SDS011;11516;51.612;7.510;2022-08-21T00:46:03;8.13;;;4.32;;
22697;SDS011;11516;51.612;7.510;2022-08-21T00:48:29;8.95;;;4.55;;
22697;SDS011;11516;51.612;7.510;2022-08-21T00:50:56;8.27;;;4.43;;
22697;SDS011;11516;51.612;7.510;2022-08-21T00:53:30;9.32;;;4.50;;
22697;SDS011;11516;51.612;7.510;2022-08-21T00:55:57;8.10;;;4.30;;
22697;SDS011;11516;51.612;7.510;2022-08-21T00:58:24;8.90;;;4.70;;
22697;SDS011;11516;51.612;7.510;2022-08-21T01:00:52;9.10;;;4.60;;
22697;SDS011;11516;51.612;7.510;2022-08-21T01:03:19;9.70;;;5.00;;
22697;SDS011;11516;51.612;7.510;2022-08-21T01:05:49;8.40;;;4.70;;
22697;SDS011;11516;51.612;7.510;2022-08-21T01:08:16;10.65;;;4.97;;
22697;SDS011;11516;51.612;7.510;2022-08-21T01:10:44;8.93;;;4.63;;
22697;SDS011;11516;51.612;7.510;2022-08-21T01:13:11;11.70;;;4.63;;
22697;SDS011;11516;51.612;7.510;2022-08-21T01:15:41;7.93;;;5.10;;
22697;SDS011;11516;51.612;7.510;2022-08-21T01:18:10;9.20;;;5.05;;
22697;SDS011;11516;51.612;7.510;2022-08-21T01:20:36;9.20;;;4.35;;
22697;SDS011;11516;51.612;7.510;2022-08-21T01:23:04;8.17;;;4.77;;
22697;SDS011;11516;51.612;7.510;2022-08-21T01:25:31;11.48;;;4.80;;
22697;SDS011;11516;51.612;7.510;2022-08-21T01:27:57;6.78;;;4.50;;
22697;SDS011;11516;51.612;7.510;2022-08-21T01:30:28;10.10;;;4.93;;
22697;SDS011;11516;51.612;7.510;2022-08-21T01:32:53;11.15;;;5.20;;
22697;SDS011;11516;51.612;7.510;2022-08-21T01:35:20;9.63;;;4.70;;
22697;SDS011;11516;51.612;7.510;2022-08-21T01:37:47;8.40;;;4.85;;
22697;SDS011;11516;51.612;7.510;2022-08-21T01:40:14;7.97;;;4.43;;
22697;SDS011;11516;51.612;7.510;2022-08-21T01:42:41;9.43;;;4.82;;
22697;SDS011;11516;51.612;7.510;2022-08-21T01:45:08;7.07;;;4.90;;
22697;SDS011;11516;51.612;7.510;2022-08-21T01:47:34;10.18;;;4.80;;
22697;SDS011;11516;51.612;7.510;2022-08-21T01:50:00;11.40;;;4.97;;
22697;SDS011;11516;51.612;7.510;2022-08-21T01:52:28;7.55;;;4.95;;
22697;SDS011;11516;51.612;7.510;2022-08-21T01:54:54;8.32;;;4.95;;
22697;SDS011;11516;51.612;7.510;2022-08-21T01:57:19;7.50;;;4.90;;
22697;SDS011;11516;51.612;7.510;2022-08-21T01:59:45;10.30;;;5.93;;
22697;SDS011;11516;51.612;7.510;2022-08-21T02:02:11;7.67;;;4.90;;
22697;SDS011;11516;51.612;7.510;2022-08-21T02:04:36;7.60;;;5.10;;
22697;SDS011;11516;51.612;7.510;2022-08-21T02:07:02;11.53;;;5.53;;
22697;SDS011;11516;51.612;7.510;2022-08-21T02:09:28;8.27;;;5.10;;
22697;SDS011;11516;51.612;7.510;2022-08-21T02:11:54;9.93;;;5.20;;
22697;SDS011;11516;51.612;7.510;2022-08-21T02:14:20;8.25;;;5.28;;
22697;SDS011;11516;51.612;7.510;2022-08-21T02:16:45;9.48;;;5.60;;
22697;SDS011;11516;51.612;7.510;2022-08-21T02:19:12;7.77;;;5.60;;
22697;SDS011;11516;51.612;7.510;2022-08-21T02:21:39;7.75;;;5.30;;
22697;SDS011;11516;51.612;7.510;2022-08-21T02:24:05;9.40;;;5.10;;
22697;SDS011;11516;51.612;7.510;2022-08-21T02:26:31;8.93;;;5.20;;
22697;SDS011;11516;51.612;7.510;2022-08-21T02:28:57;9.68;;;5.28;;
22697;SDS011;11516;51.612;7.510;2022-08-21T02:31:23;8.02;;;5.35;;
22697;SDS011;11516;51.612;7.510;2022-08-21T02:33:49;9.18;;;5.78;;
22697;SDS011;11516;51.612;7.510;2022-08-21T02:36:15;9.27;;;5.70;;
22697;SDS011;11516;51.612;7.510;2022-08-21T02:38:41;9.40;;;5.40;;
22697;SDS011;11516;51.612;7.510;2022-08-21T02:41:13;6.38;;;5.07;;
22697;SDS011;11516;51.612;7.510;2022-08-21T02:43:40;10.63;;;5.70;;
22697;SDS011;11516;51.612;7.510;2022-08-21T02:46:06;8.55;;;5.78;;
22697;SDS011;11516;51.612;7.510;2022-08-21T02:48:34;10.68;;;5.70;;
22697;SDS011;11516;51.612;7.510;2022-08-21T02:51:01;9.15;;;5.70;;
22697;SDS011;11516;51.612;7.510;2022-08-21T02:53:32;9.73;;;5.40;;
22697;SDS011;11516;51.612;7.510;2022-08-21T02:56:00;9.25;;;5.75;;
22697;SDS011;11516;51.612;7.510;2022-08-21T02:58:27;8.57;;;5.38;;
22697;SDS011;11516;51.612;7.510;2022-08-21T03:00:56;10.50;;;6.03;;
22697;SDS011;11516;51.612;7.510;2022-08-21T03:03:23;8.95;;;5.70;;
22697;SDS011;11516;51.612;7.510;2022-08-21T03:05:49;9.75;;;5.80;;
22697;SDS011;11516;51.612;7.510;2022-08-21T03:08:16;10.30;;;6.00;;
22697;SDS011;11516;51.612;7.510;2022-08-21T03:10:44;8.95;;;5.80;;
22697;SDS011;11516;51.612;7.510;2022-08-21T03:13:12;12.30;;;7.00;;
22697;SDS011;11516;51.612;7.510;2022-08-21T03:15:39;16.10;;;9.90;;
22697;SDS011;11516;51.612;7.510;2022-08-21T03:18:06;19.08;;;11.32;;
22697;SDS011;11516;51.612;7.510;2022-08-21T03:20:32;19.33;;;11.82;;
22697;SDS011;11516;51.612;7.510;2022-08-21T03:22:59;19.33;;;12.57;;
22697;SDS011;11516;51.612;7.510;2022-08-21T03:25:26;21.30;;;13.32;;
22697;SDS011;11516;51.612;7.510;2022-08-21T03:27:52;16.83;;;11.70;;
22697;SDS011;11516;51.612;7.510;2022-08-21T03:30:18;15.82;;;10.38;;
22697;SDS011;11516;51.612;7.510;2022-08-21T03:32:45;11.60;;;9.10;;
22697;SDS011;11516;51.612;7.510;2022-08-21T03:35:12;13.60;;;8.60;;
22697;SDS011;11516;51.612;7.510;2022-08-21T03:37:38;11.40;;;7.78;;
22697;SDS011;11516;51.612;7.510;2022-08-21T03:40:04;12.43;;;7.60;;
22697;SDS011;11516;51.612;7.510;2022-08-21T03:42:31;8.38;;;7.03;;
22697;SDS011;11516;51.612;7.510;2022-08-21T03:44:57;8.63;;;6.50;;
22697;SDS011;11516;51.612;7.510;2022-08-21T03:47:22;7.68;;;5.90;;
22697;SDS011;11516;51.612;7.510;2022-08-21T03:49:48;8.80;;;5.88;;
22697;SDS011;11516;51.612;7.510;2022-08-21T03:52:14;7.37;;;5.30;;
22697;SDS011;11516;51.612;7.510;2022-08-21T03:54:41;6.30;;;5.30;;
22697;SDS011;11516;51.612;7.510;2022-08-21T03:57:07;8.55;;;5.00;;
22697;SDS011;11516;51.612;7.510;2022-08-21T03:59:33;7.10;;;5.03;;
22697;SDS011;11516;51.612;7.510;2022-08-21T04:02:00;7.78;;;5.07;;
22697;SDS011;11516;51.612;7.510;2022-08-21T04:04:28;8.35;;;5.25;;
22697;SDS011;11516;51.612;7.510;2022-08-21T04:06:54;8.90;;;5.20;;
22697;SDS011;11516;51.612;7.510;2022-08-21T04:09:21;6.70;;;5.40;;
22697;SDS011;11516;51.612;7.510;2022-08-21T04:11:47;7.80;;;5.93;;
22697;SDS011;11516;51.612;7.510;2022-08-21T04:14:13;9.13;;;5.77;;
22697;SDS011;11516;51.612;7.510;2022-08-21T04:16:39;7.80;;;5.70;;
22697;SDS011;11516;51.612;7.510;2022-08-21T04:19:06;6.57;;;5.25;;
22697;SDS011;11516;51.612;7.510;2022-08-21T04:21:32;7.07;;;5.40;;
22697;SDS011;11516;51.612;7.510;2022-08-21T04:23:58;8.57;;;5.30;;
22697;SDS011;11516;51.612;7.510;2022-08-21T04:26:24;7.90;;;5.50;;
22697;SDS011;11516;51.612;7.510;2022-08-21T04:28:50;7.85;;;5.28;;
22697;SDS011;11516;51.612;7.510;2022-08-21T04:31:17;7.20;;;5.25;;
22697;SDS011;11516;51.612;7.510;2022-08-21T04:33:42;9.67;;;5.37;;
22697;SDS011;11516;51.612;7.510;2022-08-21T04:36:09;10.52;;;5.07;;
22697;SDS011;11516;51.612;7.510;2022-08-21T04:38:35;7.87;;;5.50;;
22697;SDS011;11516;51.612;7.510;2022-08-21T04:41:02;6.78;;;5.18;;
22697;SDS011;11516;51.612;7.510;2022-08-21T04:43:27;7.50;;;5.07;;
22697;SDS011;11516;51.612;7.510;2022-08-21T04:45:53;7.20;;;5.20;;
22697;SDS011;11516;51.612;7.510;2022-08-21T04:48:20;6.45;;;4.78;;
22697;SDS011;11516;51.612;7.510;2022-08-21T04:53:17;8.03;;;5.20;;
22697;SDS011;11516;51.612;7.510;2022-08-21T04:55:45;6.97;;;5.57;;
22697;SDS011;11516;51.612;7.510;2022-08-21T04:58:13;7.30;;;5.05;;
22697;SDS011;11516;51.612;7.510;2022-08-21T05:00:42;6.90;;;5.00;;
22697;SDS011;11516;51.612;7.510;2022-08-21T05:03:08;8.82;;;4.88;;
22697;SDS011;11516;51.612;7.510;2022-08-21T05:05:36;6.18;;;5.07;;
22697;SDS011;11516;51.612;7.510;2022-08-21T05:08:02;10.70;;;5.13;;
22697;SDS011;11516;51.612;7.510;2022-08-21T05:10:28;8.35;;;5.07;;
22697;SDS011;11516;51.612;7.510;2022-08-21T05:12:56;7.80;;;4.93;;
22697;SDS011;11516;51.612;7.510;2022-08-21T05:15:24;8.43;;;5.10;;
22697;SDS011;11516;51.612;7.510;2022-08-21T05:17:49;7.45;;;5.30;;
22697;SDS011;11516;51.612;7.510;2022-08-21T05:20:15;7.43;;;5.13;;
22697;SDS011;11516;51.612;7.510;2022-08-21T05:22:41;8.57;;;5.93;;
22697;SDS011;11516;51.612;7.510;2022-08-21T05:25:07;7.78;;;5.90;;
22697;SDS011;11516;51.612;7.510;2022-08-21T05:27:34;8.35;;;6.00;;
22697;SDS011;11516;51.612;7.510;2022-08-21T05:29:59;7.63;;;5.63;;
22697;SDS011;11516;51.612;7.510;2022-08-21T05:32:25;8.20;;;5.07;;
22697;SDS011;11516;51.612;7.510;2022-08-21T05:34:52;8.07;;;5.47;;
22697;SDS011;11516;51.612;7.510;2022-08-21T05:37:18;7.20;;;5.32;;
22697;SDS011;11516;51.612;7.510;2022-08-21T05:39:44;6.85;;;5.10;;
22697;SDS011;11516;51.612;7.510;2022-08-21T05:42:09;9.25;;;5.40;;
22697;SDS011;11516;51.612;7.510;2022-08-21T05:44:35;9.00;;;5.20;;
22697;SDS011;11516;51.612;7.510;2022-08-21T05:47:04;6.13;;;5.13;;
22697;SDS011;11516;51.612;7.510;2022-08-21T05:49:31;7.22;;;5.93;;
22697;SDS011;11516;51.612;7.510;2022-08-21T05:51:56;7.28;;;6.30;;
22697;SDS011;11516;51.612;7.510;2022-08-21T05:54:22;7.78;;;5.70;;
22697;SDS011;11516;51.612;7.510;2022-08-21T05:56:47;9.85;;;6.75;;
22697;SDS011;11516;51.612;7.510;2022-08-21T05:59:13;11.65;;;7.22;;
22697;SDS011;11516;51.612;7.510;2022-08-21T06:01:39;12.30;;;7.00;;
22697;SDS011;11516;51.612;7.510;2022-08-21T06:04:05;12.43;;;7.05;;
22697;SDS011;11516;51.612;7.510;2022-08-21T06:06:32;9.77;;;7.43;;
22697;SDS011;11516;51.612;7.510;2022-08-21T06:08:58;10.43;;;7.27;;
22697;SDS011;11516;51.612;7.510;2022-08-21T06:11:23;10.98;;;7.47;;
22697;SDS011;11516;51.612;7.510;2022-08-21T06:13:49;10.27;;;8.00;;
22697;SDS011;11516;51.612;7.510;2022-08-21T06:16:15;11.27;;;8.25;;
22697;SDS011;11516;51.612;7.510;2022-08-21T06:18:42;13.83;;;8.37;;
22697;SDS011;11516;51.612;7.510;2022-08-21T06:21:09;13.43;;;8.40;;
22697;SDS011;11516;51.612;7.510;2022-08-21T06:23:37;11.60;;;8.20;;
22697;SDS011;11516;51.612;7.510;2022-08-21T06:26:04;11.07;;;7.87;;
22697;SDS011;11516;51.612;7.510;2022-08-21T06:28:31;16.10;;;8.57;;
22697;SDS011;11516;51.612;7.510;2022-08-21T06:30:57;12.23;;;8.10;;
22697;SDS011;11516;51.612;7.510;2022-08-21T06:33:23;12.07;;;8.73;;
22697;SDS011;11516;51.612;7.510;2022-08-21T06:35:49;10.63;;;8.30;;
22697;SDS011;11516;51.612;7.510;2022-08-21T06:38:15;12.50;;;9.90;;
22697;SDS011;11516;51.612;7.510;2022-08-21T06:40:41;17.33;;;10.05;;
22697;SDS011;11516;51.612;7.510;2022-08-21T06:43:08;13.05;;;9.35;;
22697;SDS011;11516;51.612;7.510;2022-08-21T06:45:36;13.05;;;10.30;;
22697;SDS011;11516;51.612;7.510;2022-08-21T06:48:01;12.37;;;9.63;;
22697;SDS011;11516;51.612;7.510;2022-08-21T06:50:27;15.30;;;10.48;;
22697;SDS011;11516;51.612;7.510;2022-08-21T06:53:00;15.47;;;11.20;;
22697;SDS011;11516;51.612;7.510;2022-08-21T06:55:26;15.70;;;10.48;;
22697;SDS011;11516;51.612;7.510;2022-08-21T06:57:52;18.50;;;10.40;;
22697;SDS011;11516;51.612;7.510;2022-08-21T07:00:18;19.37;;;9.83;;
22697;SDS011;11516;51.612;7.510;2022-08-21T07:02:44;13.93;;;9.60;;
22697;SDS011;11516;51.612;7.510;2022-08-21T07:05:10;15.38;;;9.07;;
22697;SDS011;11516;51.612;7.510;2022-08-21T07:07:35;12.55;;;8.88;;
22697;SDS011;11516;51.612;7.510;2022-08-21T07:10:01;13.10;;;8.20;;
22697;SDS011;11516;51.612;7.510;2022-08-21T07:12:26;14.15;;;7.40;;
22697;SDS011;11516;51.612;7.510;2022-08-21T07:14:52;9.82;;;7.35;;
22697;SDS011;11516;51.612;7.510;2022-08-21T07:17:17;12.05;;;7.50;;
22697;SDS011;11516;51.612;7.510;2022-08-21T07:19:43;13.70;;;7.40;;
22697;SDS011;11516;51.612;7.510;2022-08-21T07:22:08;13.25;;;7.00;;
22697;SDS011;11516;51.612;7.510;2022-08-21T07:24:34;11.73;;;7.28;;
22697;SDS011;11516;51.612;7.510;2022-08-21T07:27:00;11.45;;;6.97;;
22697;SDS011;11516;51.612;7.510;2022-08-21T07:29:26;12.40;;;7.30;;
22697;SDS011;11516;51.612;7.510;2022-08-21T07:31:51;11.38;;;6.93;;
22697;SDS011;11516;51.612;7.510;2022-08-21T07:34:20;11.60;;;6.80;;
22697;SDS011;11516;51.612;7.510;2022-08-21T07:36:45;13.68;;;6.88;;
22697;SDS011;11516;51.612;7.510;2022-08-21T07:39:11;11.60;;;6.60;;
22697;SDS011;11516;51.612;7.510;2022-08-21T07:41:37;11.90;;;6.60;;
22697;SDS011;11516;51.612;7.510;2022-08-21T07:44:02;13.30;;;7.50;;
22697;SDS011;11516;51.612;7.510;2022-08-21T07:46:28;11.23;;;7.33;;
22697;SDS011;11516;51.612;7.510;2022-08-21T07:48:54;11.80;;;6.97;;
22697;SDS011;11516;51.612;7.510;2022-08-21T07:51:21;14.00;;;7.45;;
22697;SDS011;11516;51.612;7.510;2022-08-21T07:53:51;12.75;;;7.60;;
22697;SDS011;11516;51.612;7.510;2022-08-21T07:56:18;13.82;;;7.43;;
22697;SDS011;11516;51.612;7.510;2022-08-21T07:58:44;11.38;;;7.47;;
22697;SDS011;11516;51.612;7.510;2022-08-21T08:01:12;13.15;;;7.55;;
22697;SDS011;11516;51.612;7.510;2022-08-21T08:03:38;13.43;;;7.78;;
22697;SDS011;11516;51.612;7.510;2022-08-21T08:06:10;13.77;;;7.43;;
22697;SDS011;11516;51.612;7.510;2022-08-21T08:08:37;12.48;;;7.70;;
22697;SDS011;11516;51.612;7.510;2022-08-21T08:11:11;12.57;;;7.50;;
22697;SDS011;11516;51.612;7.510;2022-08-21T08:13:40;13.48;;;7.53;;
22697;SDS011;11516;51.612;7.510;2022-08-21T08:16:07;14.40;;;7.70;;
22697;SDS011;11516;51.612;7.510;2022-08-21T08:18:33;13.90;;;7.35;;
22697;SDS011;11516;51.612;7.510;2022-08-21T08:21:02;13.40;;;7.50;;
22697;SDS011;11516;51.612;7.510;2022-08-21T08:23:28;14.33;;;7.40;;
22697;SDS011;11516;51.612;7.510;2022-08-21T08:25:55;14.23;;;7.88;;
22697;SDS011;11516;51.612;7.510;2022-08-21T08:28:21;14.97;;;7.13;;
22697;SDS011;11516;51.612;7.510;2022-08-21T08:30:47;13.73;;;6.97;;
22697;SDS011;11516;51.612;7.510;2022-08-21T08:33:14;13.70;;;7.03;;
22697;SDS011;11516;51.612;7.510;2022-08-21T08:35:40;10.38;;;6.25;;
22697;SDS011;11516;51.612;7.510;2022-08-21T08:38:13;11.90;;;6.97;;
22697;SDS011;11516;51.612;7.510;2022-08-21T08:43:38;12.50;;;6.15;;
22697;SDS011;11516;51.612;7.510;2022-08-21T08:46:06;13.43;;;5.90;;
22697;SDS011;11516;51.612;7.510;2022-08-21T08:51:18;9.05;;;4.70;;
22697;SDS011;11516;51.612;7.510;2022-08-21T08:54:04;6.77;;;4.20;;
22697;SDS011;11516;51.612;7.510;2022-08-21T08:56:37;10.95;;;4.63;;
22697;SDS011;11516;51.612;7.510;2022-08-21T08:59:19;10.02;;;4.30;;
22697;SDS011;11516;51.612;7.510;2022-08-21T09:02:00;8.15;;;3.90;;
22697;SDS011;11516;51.612;7.510;2022-08-21T09:04:26;9.73;;;4.00;;
22697;SDS011;11516;51.612;7.510;2022-08-21T09:10:03;9.93;;;4.60;;
22697;SDS011;11516;51.612;7.510;2022-08-21T09:12:33;8.02;;;3.90;;
22697;SDS011;11516;51.612;7.510;2022-08-21T09:20:53;7.33;;;3.40;;
22697;SDS011;11516;51.612;7.510;2022-08-21T09:26:21;8.88;;;2.88;;
22697;SDS011;11516;51.612;7.510;2022-08-21T09:28:51;8.30;;;2.92;;
22697;SDS011;11516;51.612;7.510;2022-08-21T09:31:22;8.25;;;3.40;;
22697;SDS011;11516;51.612;7.510;2022-08-21T09:33:56;7.30;;;2.73;;
22697;SDS011;11516;51.612;7.510;2022-08-21T09:36:49;4.82;;;2.30;;
22697;SDS011;11516;51.612;7.510;2022-08-21T09:39:26;6.75;;;2.80;;
22697;SDS011;11516;51.612;7.510;2022-08-21T09:41:55;5.10;;;2.55;;
22697;SDS011;11516;51.612;7.510;2022-08-21T09:44:34;7.65;;;2.58;;
22697;SDS011;11516;51.612;7.510;2022-08-21T09:47:07;5.20;;;2.53;;
22697;SDS011;11516;51.612;7.510;2022-08-21T09:49:39;5.18;;;2.00;;
22697;SDS011;11516;51.612;7.510;2022-08-21T09:52:12;6.18;;;2.45;;
22697;SDS011;11516;51.612;7.510;2022-08-21T09:54:43;6.97;;;2.22;;
22697;SDS011;11516;51.612;7.510;2022-08-21T10:00:15;6.22;;;2.42;;
22697;SDS011;11516;51.612;7.510;2022-08-21T10:03:06;6.30;;;2.70;;
22697;SDS011;11516;51.612;7.510;2022-08-21T10:05:49;8.18;;;2.58;;
22697;SDS011;11516;51.612;7.510;2022-08-21T10:08:18;5.30;;;2.15;;
22697;SDS011;11516;51.612;7.510;2022-08-21T10:10:54;6.32;;;2.65;;
22697;SDS011;11516;51.612;7.510;2022-08-21T10:16:28;6.50;;;2.33;;
22697;SDS011;11516;51.612;7.510;2022-08-21T10:19:20;6.78;;;2.30;;
22697;SDS011;11516;51.612;7.510;2022-08-21T10:21:59;5.90;;;2.20;;
22697;SDS011;11516;51.612;7.510;2022-08-21T10:24:42;6.85;;;2.22;;
22697;SDS011;11516;51.612;7.510;2022-08-21T10:27:28;6.57;;;2.50;;
22697;SDS011;11516;51.612;7.510;2022-08-21T10:30:11;5.25;;;2.13;;
22697;SDS011;11516;51.612;7.510;2022-08-21T10:33:01;7.00;;;2.08;;
22697;SDS011;11516;51.612;7.510;2022-08-21T10:43:59;5.20;;;2.08;;
22697;SDS011;11516;51.612;7.510;2022-08-21T10:46:36;4.25;;;1.83;;
22697;SDS011;11516;51.612;7.510;2022-08-21T10:54:47;6.57;;;2.28;;
22697;SDS011;11516;51.612;7.510;2022-08-21T10:57:38;4.13;;;2.03;;
22697;SDS011;11516;51.612;7.510;2022-08-21T11:00:13;4.65;;;2.25;;
22697;SDS011;11516;51.612;7.510;2022-08-21T11:06:04;5.13;;;2.22;;
22697;SDS011;11516;51.612;7.510;2022-08-21T11:08:14;6.13;;;2.30;;
22697;SDS011;11516;51.612;7.510;2022-08-21T11:10:45;5.90;;;2.00;;
22697;SDS011;11516;51.612;7.510;2022-08-21T11:18:57;3.95;;;1.90;;
22697;SDS011;11516;51.612;7.510;2022-08-21T11:21:32;4.05;;;1.70;;
22697;SDS011;11516;51.612;7.510;2022-08-21T11:29:27;3.95;;;1.50;;
22697;SDS011;11516;51.612;7.510;2022-08-21T11:37:53;3.80;;;1.70;;
22697;SDS011;11516;51.612;7.510;2022-08-21T11:40:48;3.45;;;1.35;;
22697;SDS011;11516;51.612;7.510;2022-08-21T11:43:48;4.75;;;1.13;;
22697;SDS011;11516;51.612;7.510;2022-08-21T11:51:32;2.20;;;1.10;;
22697;SDS011;11516;51.612;7.510;2022-08-21T11:56:48;2.57;;;1.40;;
22697;SDS011;11516;51.612;7.510;2022-08-21T11:59:22;3.15;;;0.98;;
22697;SDS011;11516;51.612;7.510;2022-08-21T12:02:05;3.20;;;1.40;;
22697;SDS011;11516;51.612;7.510;2022-08-21T12:04:42;2.60;;;1.40;;
22697;SDS011;11516;51.612;7.510;2022-08-21T12:07:17;2.35;;;1.10;;
22697;SDS011;11516;51.612;7.510;2022-08-21T12:10:05;2.55;;;1.30;;
22697;SDS011;11516;51.612;7.510;2022-08-21T12:12:35;2.58;;;1.10;;
22697;SDS011;11516;51.612;7.510;2022-08-21T12:15:12;2.20;;;1.07;;
22697;SDS011;11516;51.612;7.510;2022-08-21T12:18:34;1.90;;;1.08;;
22697;SDS011;11516;51.612;7.510;2022-08-21T12:21:27;1.33;;;1.10;;
22697;SDS011;11516;51.612;7.510;2022-08-21T12:24:31;1.83;;;0.93;;
22697;SDS011;11516;51.612;7.510;2022-08-21T12:27:14;2.73;;;1.50;;
22697;SDS011;11516;51.612;7.510;2022-08-21T12:29:50;1.85;;;0.88;;
22697;SDS011;11516;51.612;7.510;2022-08-21T12:32:26;2.03;;;1.00;;
22697;SDS011;11516;51.612;7.510;2022-08-21T12:35:20;2.53;;;1.08;;
22697;SDS011;11516;51.612;7.510;2022-08-21T12:38:02;3.17;;;1.27;;
22697;SDS011;11516;51.612;7.510;2022-08-21T12:40:43;2.40;;;1.00;;
22697;SDS011;11516;51.612;7.510;2022-08-21T12:43:18;3.08;;;1.20;;
22697;SDS011;11516;51.612;7.510;2022-08-21T12:45:54;2.47;;;1.23;;
22697;SDS011;11516;51.612;7.510;2022-08-21T12:48:21;2.80;;;1.20;;
22697;SDS011;11516;51.612;7.510;2022-08-21T12:50:55;3.15;;;1.45;;
22697;SDS011;11516;51.612;7.510;2022-08-21T12:53:30;2.30;;;1.30;;
22697;SDS011;11516;51.612;7.510;2022-08-21T12:56:01;2.22;;;1.00;;
22697;SDS011;11516;51.612;7.510;2022-08-21T12:58:29;2.97;;;1.10;;
22697;SDS011;11516;51.612;7.510;2022-08-21T13:00:56;1.88;;;1.08;;
22697;SDS011;11516;51.612;7.510;2022-08-21T13:03:30;2.30;;;1.13;;
22697;SDS011;11516;51.612;7.510;2022-08-21T13:06:00;2.45;;;1.08;;
22697;SDS011;11516;51.612;7.510;2022-08-21T13:08:28;2.30;;;1.30;;
22697;SDS011;11516;51.612;7.510;2022-08-21T13:10:59;2.60;;;1.30;;
22697;SDS011;11516;51.612;7.510;2022-08-21T13:13:29;3.28;;;1.10;;
22697;SDS011;11516;51.612;7.510;2022-08-21T13:15:59;2.72;;;1.20;;
22697;SDS011;11516;51.612;7.510;2022-08-21T13:18:32;2.25;;;1.50;;
22697;SDS011;11516;51.612;7.510;2022-08-21T13:21:04;2.95;;;1.60;;
22697;SDS011;11516;51.612;7.510;2022-08-21T13:23:36;2.58;;;1.15;;
22697;SDS011;11516;51.612;7.510;2022-08-21T13:26:11;3.13;;;1.58;;
22697;SDS011;11516;51.612;7.510;2022-08-21T13:28:41;3.53;;;1.88;;
22697;SDS011;11516;51.612;7.510;2022-08-21T13:31:11;5.00;;;2.78;;
22697;SDS011;11516;51.612;7.510;2022-08-21T13:33:38;3.15;;;1.02;;
22697;SDS011;11516;51.612;7.510;2022-08-21T13:36:11;1.98;;;0.90;;
22697;SDS011;11516;51.612;7.510;2022-08-21T13:38:42;3.17;;;1.08;;
22697;SDS011;11516;51.612;7.510;2022-08-21T13:41:19;4.00;;;1.60;;
22697;SDS011;11516;51.612;7.510;2022-08-21T13:43:48;3.08;;;1.40;;
22697;SDS011;11516;51.612;7.510;2022-08-21T13:46:16;1.63;;;1.08;;
22697;SDS011;11516;51.612;7.510;2022-08-21T13:48:45;3.00;;;1.48;;
22697;SDS011;11516;51.612;7.510;2022-08-21T13:51:10;3.10;;;1.20;;
22697;SDS011;11516;51.612;7.510;2022-08-21T13:53:45;2.92;;;1.20;;
22697;SDS011;11516;51.612;7.510;2022-08-21T13:56:26;2.07;;;1.20;;
22697;SDS011;11516;51.612;7.510;2022-08-21T13:58:54;4.33;;;1.50;;
22697;SDS011;11516;51.612;7.510;2022-08-21T14:01:29;2.42;;;1.33;;
22697;SDS011;11516;51.612;7.510;2022-08-21T14:04:00;2.88;;;1.20;;
22697;SDS011;11516;51.612;7.510;2022-08-21T14:06:59;3.58;;;1.55;;
22697;SDS011;11516;51.612;7.510;2022-08-21T14:12:00;2.38;;;1.30;;
22697;SDS011;11516;51.612;7.510;2022-08-21T14:14:37;4.15;;;1.40;;
22697;SDS011;11516;51.612;7.510;2022-08-21T14:17:05;2.17;;;1.05;;
22697;SDS011;11516;51.612;7.510;2022-08-21T14:19:38;4.28;;;1.10;;
22697;SDS011;11516;51.612;7.510;2022-08-21T14:24:47;1.27;;;0.90;;
22697;SDS011;11516;51.612;7.510;2022-08-21T14:27:25;2.17;;;1.20;;
22697;SDS011;11516;51.612;7.510;2022-08-21T14:29:57;1.63;;;1.10;;
22697;SDS011;11516;51.612;7.510;2022-08-21T14:32:24;4.55;;;1.52;;
22697;SDS011;11516;51.612;7.510;2022-08-21T14:34:55;3.63;;;1.23;;
22697;SDS011;11516;51.612;7.510;2022-08-21T14:37:22;4.50;;;1.40;;
22697;SDS011;11516;51.612;7.510;2022-08-21T14:39:50;3.28;;;1.67;;
22697;SDS011;11516;51.612;7.510;2022-08-21T14:42:16;3.33;;;1.20;;
22697;SDS011;11516;51.612;7.510;2022-08-21T14:44:42;3.60;;;1.30;;
22697;SDS011;11516;51.612;7.510;2022-08-21T14:47:08;3.08;;;1.45;;
22697;SDS011;11516;51.612;7.510;2022-08-21T14:49:34;1.63;;;1.10;;
22697;SDS011;11516;51.612;7.510;2022-08-21T14:52:00;2.97;;;1.40;;
22697;SDS011;11516;51.612;7.510;2022-08-21T14:54:26;2.15;;;1.20;;
22697;SDS011;11516;51.612;7.510;2022-08-21T14:56:53;3.25;;;1.02;;
22697;SDS011;11516;51.612;7.510;2022-08-21T14:59:20;1.83;;;1.00;;
22697;SDS011;11516;51.612;7.510;2022-08-21T15:01:46;2.10;;;1.35;;
22697;SDS011;11516;51.612;7.510;2022-08-21T15:04:12;2.67;;;1.27;;
22697;SDS011;11516;51.612;7.510;2022-08-21T15:06:41;2.55;;;1.40;;
22697;SDS011;11516;51.612;7.510;2022-08-21T15:09:06;1.87;;;1.07;;
22697;SDS011;11516;51.612;7.510;2022-08-21T15:11:32;2.63;;;1.10;;
22697;SDS011;11516;51.612;7.510;2022-08-21T15:13:59;2.78;;;1.35;;
22697;SDS011;11516;51.612;7.510;2022-08-21T15:16:31;2.53;;;1.35;;
22697;SDS011;11516;51.612;7.510;2022-08-21T15:18:57;2.75;;;1.48;;
22697;SDS011;11516;51.612;7.510;2022-08-21T15:21:23;1.63;;;1.10;;
22697;SDS011;11516;51.612;7.510;2022-08-21T15:23:48;2.63;;;1.43;;
22697;SDS011;11516;51.612;7.510;2022-08-21T15:26:14;2.07;;;1.33;;
22697;SDS011;11516;51.612;7.510;2022-08-21T15:28:42;2.90;;;1.40;;
22697;SDS011;11516;51.612;7.510;2022-08-21T15:31:08;1.52;;;1.23;;
22697;SDS011;11516;51.612;7.510;2022-08-21T15:33:33;1.83;;;1.20;;
22697;SDS011;11516;51.612;7.510;2022-08-21T15:35:59;3.40;;;1.37;;
22697;SDS011;11516;51.612;7.510;2022-08-21T15:38:25;1.73;;;1.10;;
22697;SDS011;11516;51.612;7.510;2022-08-21T15:40:50;2.47;;;1.30;;
22697;SDS011;11516;51.612;7.510;2022-08-21T15:43:27;2.60;;;1.43;;
22697;SDS011;11516;51.612;7.510;2022-08-21T15:45:54;2.40;;;1.30;;
22697;SDS011;11516;51.612;7.510;2022-08-21T15:48:20;3.15;;;1.52;;
22697;SDS011;11516;51.612;7.510;2022-08-21T15:50:46;2.55;;;1.40;;
22697;SDS011;11516;51.612;7.510;2022-08-21T15:53:12;2.20;;;1.10;;
22697;SDS011;11516;51.612;7.510;2022-08-21T15:55:38;2.13;;;1.13;;
22697;SDS011;11516;51.612;7.510;2022-08-21T15:58:04;4.32;;;1.38;;
22697;SDS011;11516;51.612;7.510;2022-08-21T16:00:31;4.63;;;1.42;;
22697;SDS011;11516;51.612;7.510;2022-08-21T16:02:59;2.67;;;1.40;;
22697;SDS011;11516;51.612;7.510;2022-08-21T16:05:28;5.38;;;1.45;;
22697;SDS011;11516;51.612;7.510;2022-08-21T16:07:53;5.50;;;1.33;;
22697;SDS011;11516;51.612;7.510;2022-08-21T16:10:20;2.93;;;1.20;;